sensor_id;sensor_type;location;lat;lon;timestamp;P1;durP1;ratioP1;P2;durP2;ratioP2
23115;SDS011;11727;52.134;5.052;2022-09-02T00:01:33;0.73;;;0.40;;
23115;SDS011;11727;52.134;5.052;2022-09-02T00:04:06;3.67;;;0.50;;
23115;SDS011;11727;52.134;5.052;2022-09-02T00:06:34;1.55;;;0.50;;
23115;SDS011;11727;52.134;5.052;2022-09-02T00:09:00;0.38;;;0.30;;
23115;SDS011;11727;52.134;5.052;2022-09-02T00:11:28;0.68;;;0.30;;
23115;SDS011;11727;52.134;5.052;2022-09-02T00:13:56;1.48;;;0.30;;
23115;SDS011;11727;52.134;5.052;2022-09-02T00:16:24;1.58;;;0.50;;
23115;SDS011;11727;52.134;5.052;2022-09-02T00:18:50;0.60;;;0.32;;
23115;SDS011;11727;52.134;5.052;2022-09-02T00:21:16;4.25;;;0.47;;
23115;SDS011;11727;52.134;5.052;2022-09-02T00:23:43;0.63;;;0.40;;
23115;SDS011;11727;52.134;5.052;2022-09-02T00:26:10;0.90;;;0.30;;
23115;SDS011;11727;52.134;5.052;2022-09-02T00:28:36;0.33;;;0.27;;
23115;SDS011;11727;52.134;5.052;2022-09-02T00:31:03;0.98;;;0.40;;
23115;SDS011;11727;52.134;5.052;2022-09-02T00:33:28;0.88;;;0.38;;
23115;SDS011;11727;52.134;5.052;2022-09-02T00:35:57;0.93;;;0.43;;
23115;SDS011;11727;52.134;5.052;2022-09-02T00:38:27;1.08;;;0.40;;
23115;SDS011;11727;52.134;5.052;2022-09-02T00:40:53;2.97;;;0.40;;
23115;SDS011;11727;52.134;5.052;2022-09-02T00:43:36;1.73;;;0.50;;
23115;SDS011;11727;52.134;5.052;2022-09-02T00:46:02;1.15;;;0.30;;
23115;SDS011;11727;52.134;5.052;2022-09-02T00:48:28;1.70;;;0.30;;
23115;SDS011;11727;52.134;5.052;2022-09-02T00:50:54;1.08;;;0.32;;
23115;SDS011;11727;52.134;5.052;2022-09-02T00:53:20;0.75;;;0.25;;
23115;SDS011;11727;52.134;5.052;2022-09-02T00:55:47;0.70;;;0.40;;
23115;SDS011;11727;52.134;5.052;2022-09-02T00:58:16;0.43;;;0.30;;
23115;SDS011;11727;52.134;5.052;2022-09-02T01:00:45;1.02;;;0.45;;
23115;SDS011;11727;52.134;5.052;2022-09-02T01:03:14;4.20;;;0.60;;
23115;SDS011;11727;52.134;5.052;2022-09-02T01:05:44;0.30;;;0.30;;
23115;SDS011;11727;52.134;5.052;2022-09-02T01:08:13;0.85;;;0.40;;
23115;SDS011;11727;52.134;5.052;2022-09-02T01:10:43;0.68;;;0.40;;
23115;SDS011;11727;52.134;5.052;2022-09-02T01:13:11;2.50;;;0.40;;
23115;SDS011;11727;52.134;5.052;2022-09-02T01:15:41;0.82;;;0.38;;
23115;SDS011;11727;52.134;5.052;2022-09-02T01:18:12;2.17;;;0.70;;
23115;SDS011;11727;52.134;5.052;2022-09-02T01:20:40;2.97;;;0.85;;
23115;SDS011;11727;52.134;5.052;2022-09-02T01:23:06;3.63;;;0.60;;
23115;SDS011;11727;52.134;5.052;2022-09-02T01:25:33;2.95;;;0.47;;
23115;SDS011;11727;52.134;5.052;2022-09-02T01:28:00;1.23;;;0.43;;
23115;SDS011;11727;52.134;5.052;2022-09-02T01:30:38;0.90;;;0.40;;
23115;SDS011;11727;52.134;5.052;2022-09-02T01:33:06;6.15;;;0.57;;
23115;SDS011;11727;52.134;5.052;2022-09-02T01:35:33;1.42;;;0.60;;
23115;SDS011;11727;52.134;5.052;2022-09-02T01:37:59;0.35;;;0.32;;
23115;SDS011;11727;52.134;5.052;2022-09-02T01:40:27;0.60;;;0.40;;
23115;SDS011;11727;52.134;5.052;2022-09-02T01:42:58;1.42;;;0.50;;
23115;SDS011;11727;52.134;5.052;2022-09-02T01:45:26;1.65;;;0.77;;
23115;SDS011;11727;52.134;5.052;2022-09-02T01:47:53;1.35;;;0.40;;
23115;SDS011;11727;52.134;5.052;2022-09-02T01:50:18;1.23;;;0.57;;
23115;SDS011;11727;52.134;5.052;2022-09-02T01:52:44;1.90;;;0.47;;
23115;SDS011;11727;52.134;5.052;2022-09-02T01:55:10;1.02;;;0.63;;
23115;SDS011;11727;52.134;5.052;2022-09-02T01:57:36;0.68;;;0.32;;
23115;SDS011;11727;52.134;5.052;2022-09-02T02:00:03;3.72;;;0.40;;
23115;SDS011;11727;52.134;5.052;2022-09-02T02:02:31;0.60;;;0.35;;
23115;SDS011;11727;52.134;5.052;2022-09-02T02:04:56;0.77;;;0.50;;
23115;SDS011;11727;52.134;5.052;2022-09-02T02:07:22;0.43;;;0.22;;
23115;SDS011;11727;52.134;5.052;2022-09-02T02:09:48;1.25;;;0.40;;
23115;SDS011;11727;52.134;5.052;2022-09-02T02:12:15;0.70;;;0.30;;
23115;SDS011;11727;52.134;5.052;2022-09-02T02:14:41;0.77;;;0.40;;
23115;SDS011;11727;52.134;5.052;2022-09-02T02:17:06;0.95;;;0.47;;
23115;SDS011;11727;52.134;5.052;2022-09-02T02:19:32;0.88;;;0.40;;
23115;SDS011;11727;52.134;5.052;2022-09-02T02:21:58;1.10;;;0.50;;
23115;SDS011;11727;52.134;5.052;2022-09-02T02:24:24;0.38;;;0.22;;
23115;SDS011;11727;52.134;5.052;2022-09-02T02:26:50;0.43;;;0.30;;
23115;SDS011;11727;52.134;5.052;2022-09-02T02:29:16;1.45;;;0.30;;
23115;SDS011;11727;52.134;5.052;2022-09-02T02:31:42;0.82;;;0.25;;
23115;SDS011;11727;52.134;5.052;2022-09-02T02:34:08;1.02;;;0.40;;
23115;SDS011;11727;52.134;5.052;2022-09-02T02:36:34;1.20;;;0.50;;
23115;SDS011;11727;52.134;5.052;2022-09-02T02:39:01;2.38;;;0.50;;
23115;SDS011;11727;52.134;5.052;2022-09-02T02:41:31;0.55;;;0.40;;
23115;SDS011;11727;52.134;5.052;2022-09-02T02:43:57;0.88;;;0.40;;
23115;SDS011;11727;52.134;5.052;2022-09-02T02:46:23;1.42;;;0.40;;
23115;SDS011;11727;52.134;5.052;2022-09-02T02:48:49;0.52;;;0.30;;
23115;SDS011;11727;52.134;5.052;2022-09-02T02:51:14;1.40;;;0.50;;
23115;SDS011;11727;52.134;5.052;2022-09-02T02:53:40;0.68;;;0.45;;
23115;SDS011;11727;52.134;5.052;2022-09-02T02:56:06;2.28;;;0.32;;
23115;SDS011;11727;52.134;5.052;2022-09-02T02:58:33;1.20;;;0.47;;
23115;SDS011;11727;52.134;5.052;2022-09-02T03:01:00;3.08;;;0.50;;
23115;SDS011;11727;52.134;5.052;2022-09-02T03:03:26;0.88;;;0.60;;
23115;SDS011;11727;52.134;5.052;2022-09-02T03:05:52;0.52;;;0.38;;
23115;SDS011;11727;52.134;5.052;2022-09-02T03:08:18;0.68;;;0.50;;
23115;SDS011;11727;52.134;5.052;2022-09-02T03:10:45;9.95;;;0.70;;
23115;SDS011;11727;52.134;5.052;2022-09-02T03:13:17;0.60;;;0.40;;
23115;SDS011;11727;52.134;5.052;2022-09-02T03:15:43;1.13;;;0.40;;
23115;SDS011;11727;52.134;5.052;2022-09-02T03:18:09;1.20;;;0.50;;
23115;SDS011;11727;52.134;5.052;2022-09-02T03:20:35;1.42;;;0.32;;
23115;SDS011;11727;52.134;5.052;2022-09-02T03:23:00;0.57;;;0.30;;
23115;SDS011;11727;52.134;5.052;2022-09-02T03:25:28;0.60;;;0.30;;
23115;SDS011;11727;52.134;5.052;2022-09-02T03:27:55;3.97;;;0.68;;
23115;SDS011;11727;52.134;5.052;2022-09-02T03:30:22;5.20;;;0.50;;
23115;SDS011;11727;52.134;5.052;2022-09-02T03:32:50;0.90;;;0.50;;
23115;SDS011;11727;52.134;5.052;2022-09-02T03:35:17;0.52;;;0.20;;
23115;SDS011;11727;52.134;5.052;2022-09-02T03:40:11;0.50;;;0.30;;
23115;SDS011;11727;52.134;5.052;2022-09-02T03:42:39;0.82;;;0.30;;
23115;SDS011;11727;52.134;5.052;2022-09-02T03:45:05;0.98;;;0.40;;
23115;SDS011;11727;52.134;5.052;2022-09-02T03:49:58;1.73;;;0.47;;
23115;SDS011;11727;52.134;5.052;2022-09-02T03:52:24;1.58;;;0.60;;
23115;SDS011;11727;52.134;5.052;2022-09-02T03:54:50;0.60;;;0.38;;
23115;SDS011;11727;52.134;5.052;2022-09-02T03:57:16;0.90;;;0.57;;
23115;SDS011;11727;52.134;5.052;2022-09-02T03:59:44;4.68;;;1.10;;
23115;SDS011;11727;52.134;5.052;2022-09-02T04:02:10;1.13;;;0.50;;
23115;SDS011;11727;52.134;5.052;2022-09-02T04:04:35;2.13;;;0.73;;
23115;SDS011;11727;52.134;5.052;2022-09-02T04:07:01;0.52;;;0.35;;
23115;SDS011;11727;52.134;5.052;2022-09-02T04:09:27;7.05;;;0.90;;
23115;SDS011;11727;52.134;5.052;2022-09-02T04:11:53;0.50;;;0.30;;
23115;SDS011;11727;52.134;5.052;2022-09-02T04:14:19;6.15;;;0.50;;
23115;SDS011;11727;52.134;5.052;2022-09-02T04:16:44;1.27;;;0.30;;
23115;SDS011;11727;52.134;5.052;2022-09-02T04:19:10;7.07;;;0.40;;
23115;SDS011;11727;52.134;5.052;2022-09-02T04:21:37;5.95;;;0.75;;
23115;SDS011;11727;52.134;5.052;2022-09-02T04:24:04;1.25;;;0.70;;
23115;SDS011;11727;52.134;5.052;2022-09-02T04:26:33;0.82;;;0.40;;
23115;SDS011;11727;52.134;5.052;2022-09-02T04:28:59;1.50;;;0.60;;
23115;SDS011;11727;52.134;5.052;2022-09-02T04:31:25;0.57;;;0.35;;
23115;SDS011;11727;52.134;5.052;2022-09-02T04:33:53;0.52;;;0.40;;
23115;SDS011;11727;52.134;5.052;2022-09-02T04:36:21;0.60;;;0.30;;
23115;SDS011;11727;52.134;5.052;2022-09-02T04:38:47;6.33;;;0.60;;
23115;SDS011;11727;52.134;5.052;2022-09-02T04:41:18;0.55;;;0.40;;
23115;SDS011;11727;52.134;5.052;2022-09-02T04:43:46;0.45;;;0.40;;
23115;SDS011;11727;52.134;5.052;2022-09-02T04:46:14;0.85;;;0.40;;
23115;SDS011;11727;52.134;5.052;2022-09-02T04:48:40;0.82;;;0.70;;
23115;SDS011;11727;52.134;5.052;2022-09-02T04:51:08;0.32;;;0.32;;
23115;SDS011;11727;52.134;5.052;2022-09-02T04:53:42;0.93;;;0.77;;
23115;SDS011;11727;52.134;5.052;2022-09-02T04:56:10;1.13;;;0.40;;
23115;SDS011;11727;52.134;5.052;2022-09-02T04:58:39;1.38;;;0.30;;
23115;SDS011;11727;52.134;5.052;2022-09-02T05:01:06;1.90;;;0.55;;
23115;SDS011;11727;52.134;5.052;2022-09-02T05:03:33;0.88;;;0.30;;
23115;SDS011;11727;52.134;5.052;2022-09-02T05:06:07;1.48;;;0.30;;
23115;SDS011;11727;52.134;5.052;2022-09-02T05:08:35;1.52;;;0.50;;
23115;SDS011;11727;52.134;5.052;2022-09-02T05:11:19;3.35;;;0.50;;
23115;SDS011;11727;52.134;5.052;2022-09-02T05:13:47;1.02;;;0.50;;
23115;SDS011;11727;52.134;5.052;2022-09-02T05:16:16;1.10;;;0.45;;
23115;SDS011;11727;52.134;5.052;2022-09-02T05:18:47;0.68;;;0.40;;
23115;SDS011;11727;52.134;5.052;2022-09-02T05:21:14;0.85;;;0.40;;
23115;SDS011;11727;52.134;5.052;2022-09-02T05:23:40;1.40;;;0.32;;
23115;SDS011;11727;52.134;5.052;2022-09-02T05:26:07;1.27;;;0.43;;
23115;SDS011;11727;52.134;5.052;2022-09-02T05:28:34;8.07;;;0.70;;
23115;SDS011;11727;52.134;5.052;2022-09-02T05:31:05;3.63;;;0.50;;
23115;SDS011;11727;52.134;5.052;2022-09-02T05:33:32;0.60;;;0.40;;
23115;SDS011;11727;52.134;5.052;2022-09-02T05:36:03;1.50;;;0.45;;
23115;SDS011;11727;52.134;5.052;2022-09-02T05:38:29;1.08;;;0.40;;
23115;SDS011;11727;52.134;5.052;2022-09-02T05:40:56;0.53;;;0.33;;
23115;SDS011;11727;52.134;5.052;2022-09-02T05:43:21;2.15;;;0.40;;
23115;SDS011;11727;52.134;5.052;2022-09-02T05:45:47;3.08;;;0.60;;
23115;SDS011;11727;52.134;5.052;2022-09-02T05:48:13;4.97;;;0.50;;
23115;SDS011;11727;52.134;5.052;2022-09-02T05:50:57;1.33;;;0.50;;
23115;SDS011;11727;52.134;5.052;2022-09-02T05:53:23;2.25;;;0.40;;
23115;SDS011;11727;52.134;5.052;2022-09-02T05:55:50;3.28;;;0.38;;
23115;SDS011;11727;52.134;5.052;2022-09-02T05:58:16;3.65;;;0.50;;
23115;SDS011;11727;52.134;5.052;2022-09-02T06:00:42;0.63;;;0.40;;
23115;SDS011;11727;52.134;5.052;2022-09-02T06:03:08;1.45;;;0.70;;
23115;SDS011;11727;52.134;5.052;2022-09-02T06:05:33;0.30;;;0.30;;
23115;SDS011;11727;52.134;5.052;2022-09-02T06:08:02;0.50;;;0.40;;
23115;SDS011;11727;52.134;5.052;2022-09-02T06:10:28;0.98;;;0.32;;
23115;SDS011;11727;52.134;5.052;2022-09-02T06:12:53;1.17;;;0.30;;
23115;SDS011;11727;52.134;5.052;2022-09-02T06:15:19;1.88;;;0.35;;
23115;SDS011;11727;52.134;5.052;2022-09-02T06:17:44;1.33;;;0.50;;
23115;SDS011;11727;52.134;5.052;2022-09-02T06:20:10;0.38;;;0.30;;
23115;SDS011;11727;52.134;5.052;2022-09-02T06:22:36;0.88;;;0.40;;
23115;SDS011;11727;52.134;5.052;2022-09-02T06:25:02;3.25;;;0.47;;
23115;SDS011;11727;52.134;5.052;2022-09-02T06:27:27;0.40;;;0.30;;
23115;SDS011;11727;52.134;5.052;2022-09-02T06:29:53;1.27;;;0.43;;
23115;SDS011;11727;52.134;5.052;2022-09-02T06:32:19;8.90;;;0.52;;
23115;SDS011;11727;52.134;5.052;2022-09-02T06:34:45;1.35;;;0.50;;
23115;SDS011;11727;52.134;5.052;2022-09-02T06:37:10;0.50;;;0.40;;
23115;SDS011;11727;52.134;5.052;2022-09-02T06:39:36;1.45;;;0.50;;
23115;SDS011;11727;52.134;5.052;2022-09-02T06:42:02;1.35;;;0.38;;
23115;SDS011;11727;52.134;5.052;2022-09-02T06:44:28;0.75;;;0.30;;
23115;SDS011;11727;52.134;5.052;2022-09-02T06:46:55;1.52;;;0.70;;
23115;SDS011;11727;52.134;5.052;2022-09-02T06:49:22;0.95;;;0.35;;
23115;SDS011;11727;52.134;5.052;2022-09-02T06:54:17;0.85;;;0.40;;
23115;SDS011;11727;52.134;5.052;2022-09-02T06:59:10;4.57;;;0.50;;
23115;SDS011;11727;52.134;5.052;2022-09-02T07:01:36;0.82;;;0.40;;
23115;SDS011;11727;52.134;5.052;2022-09-02T07:04:02;1.48;;;0.50;;
23115;SDS011;11727;52.134;5.052;2022-09-02T07:06:48;1.52;;;0.50;;
23115;SDS011;11727;52.134;5.052;2022-09-02T07:09:18;2.08;;;0.40;;
23115;SDS011;11727;52.134;5.052;2022-09-02T07:11:45;1.02;;;0.47;;
23115;SDS011;11727;52.134;5.052;2022-09-02T07:14:15;1.20;;;0.40;;
23115;SDS011;11727;52.134;5.052;2022-09-02T07:16:45;1.17;;;0.60;;
23115;SDS011;11727;52.134;5.052;2022-09-02T07:19:16;1.77;;;0.60;;
23115;SDS011;11727;52.134;5.052;2022-09-02T07:21:45;1.60;;;0.47;;
23115;SDS011;11727;52.134;5.052;2022-09-02T07:24:12;0.95;;;0.30;;
23115;SDS011;11727;52.134;5.052;2022-09-02T07:26:39;1.95;;;0.55;;
23115;SDS011;11727;52.134;5.052;2022-09-02T07:29:05;1.73;;;0.60;;
23115;SDS011;11727;52.134;5.052;2022-09-02T07:31:33;1.10;;;0.50;;
23115;SDS011;11727;52.134;5.052;2022-09-02T07:34:03;0.80;;;0.32;;
23115;SDS011;11727;52.134;5.052;2022-09-02T07:36:30;1.00;;;0.50;;
23115;SDS011;11727;52.134;5.052;2022-09-02T07:38:56;0.70;;;0.50;;
23115;SDS011;11727;52.134;5.052;2022-09-02T07:41:23;3.10;;;0.82;;
23115;SDS011;11727;52.134;5.052;2022-09-02T07:43:49;1.70;;;0.40;;
23115;SDS011;11727;52.134;5.052;2022-09-02T07:46:15;0.90;;;0.32;;
23115;SDS011;11727;52.134;5.052;2022-09-02T07:48:40;2.15;;;0.70;;
23115;SDS011;11727;52.134;5.052;2022-09-02T07:51:06;3.90;;;0.50;;
23115;SDS011;11727;52.134;5.052;2022-09-02T07:53:33;2.10;;;0.50;;
23115;SDS011;11727;52.134;5.052;2022-09-02T07:56:00;0.73;;;0.38;;
23115;SDS011;11727;52.134;5.052;2022-09-02T07:58:26;0.85;;;0.50;;
23115;SDS011;11727;52.134;5.052;2022-09-02T08:00:52;1.38;;;0.60;;
23115;SDS011;11727;52.134;5.052;2022-09-02T08:03:20;1.05;;;0.47;;
23115;SDS011;11727;52.134;5.052;2022-09-02T08:05:48;2.00;;;0.55;;
23115;SDS011;11727;52.134;5.052;2022-09-02T08:08:14;0.50;;;0.30;;
23115;SDS011;11727;52.134;5.052;2022-09-02T08:10:44;0.50;;;0.50;;
23115;SDS011;11727;52.134;5.052;2022-09-02T08:13:11;1.10;;;0.50;;
23115;SDS011;11727;52.134;5.052;2022-09-02T08:15:37;2.15;;;0.63;;
23115;SDS011;11727;52.134;5.052;2022-09-02T08:18:03;2.05;;;0.70;;
23115;SDS011;11727;52.134;5.052;2022-09-02T08:20:30;1.30;;;0.60;;
23115;SDS011;11727;52.134;5.052;2022-09-02T08:22:56;3.05;;;0.45;;
23115;SDS011;11727;52.134;5.052;2022-09-02T08:25:22;1.30;;;0.50;;
23115;SDS011;11727;52.134;5.052;2022-09-02T08:27:48;1.05;;;0.50;;
23115;SDS011;11727;52.134;5.052;2022-09-02T08:30:14;0.63;;;0.47;;
23115;SDS011;11727;52.134;5.052;2022-09-02T08:32:40;1.75;;;0.65;;
23115;SDS011;11727;52.134;5.052;2022-09-02T08:35:06;1.40;;;0.47;;
23115;SDS011;11727;52.134;5.052;2022-09-02T08:37:34;0.63;;;0.40;;
23115;SDS011;11727;52.134;5.052;2022-09-02T08:40:02;4.22;;;0.80;;
23115;SDS011;11727;52.134;5.052;2022-09-02T08:45:17;0.60;;;0.40;;
23115;SDS011;11727;52.134;5.052;2022-09-02T08:48:16;2.42;;;1.00;;
23115;SDS011;11727;52.134;5.052;2022-09-02T08:50:51;0.57;;;0.38;;
23115;SDS011;11727;52.134;5.052;2022-09-02T08:53:31;1.63;;;0.50;;
23115;SDS011;11727;52.134;5.052;2022-09-02T08:56:24;2.10;;;0.65;;
23115;SDS011;11727;52.134;5.052;2022-09-02T08:58:53;2.05;;;0.60;;
23115;SDS011;11727;52.134;5.052;2022-09-02T09:01:32;0.90;;;0.50;;
23115;SDS011;11727;52.134;5.052;2022-09-02T09:09:57;0.80;;;0.45;;
23115;SDS011;11727;52.134;5.052;2022-09-02T09:17:55;1.48;;;0.70;;
23115;SDS011;11727;52.134;5.052;2022-09-02T09:20:27;2.50;;;0.60;;
23115;SDS011;11727;52.134;5.052;2022-09-02T09:22:56;1.90;;;0.60;;
23115;SDS011;11727;52.134;5.052;2022-09-02T09:25:24;3.40;;;0.80;;
23115;SDS011;11727;52.134;5.052;2022-09-02T09:27:55;3.33;;;0.50;;
23115;SDS011;11727;52.134;5.052;2022-09-02T09:30:21;1.88;;;0.75;;
23115;SDS011;11727;52.134;5.052;2022-09-02T09:32:51;1.92;;;0.80;;
23115;SDS011;11727;52.134;5.052;2022-09-02T09:35:24;2.70;;;0.80;;
23115;SDS011;11727;52.134;5.052;2022-09-02T09:38:11;4.13;;;0.63;;
23115;SDS011;11727;52.134;5.052;2022-09-02T09:40:38;3.78;;;0.77;;
23115;SDS011;11727;52.134;5.052;2022-09-02T09:45:37;1.77;;;0.82;;
23115;SDS011;11727;52.134;5.052;2022-09-02T09:51:31;3.50;;;0.60;;
23115;SDS011;11727;52.134;5.052;2022-09-02T09:53:37;1.48;;;0.73;;
23115;SDS011;11727;52.134;5.052;2022-09-02T10:11:26;2.03;;;0.73;;
23115;SDS011;11727;52.134;5.052;2022-09-02T10:13:55;2.35;;;0.80;;
23115;SDS011;11727;52.134;5.052;2022-09-02T10:19:28;1.73;;;0.90;;
23115;SDS011;11727;52.134;5.052;2022-09-02T10:30:25;1.75;;;0.60;;
23115;SDS011;11727;52.134;5.052;2022-09-02T10:40:47;0.88;;;0.68;;
23115;SDS011;11727;52.134;5.052;2022-09-02T10:46:08;1.58;;;0.80;;
23115;SDS011;11727;52.134;5.052;2022-09-02T10:48:48;2.00;;;0.90;;
23115;SDS011;11727;52.134;5.052;2022-09-02T10:51:36;1.10;;;0.80;;
23115;SDS011;11727;52.134;5.052;2022-09-02T10:57:13;2.13;;;0.85;;
23115;SDS011;11727;52.134;5.052;2022-09-02T10:59:48;2.45;;;0.82;;
23115;SDS011;11727;52.134;5.052;2022-09-02T11:02:29;2.42;;;0.90;;
23115;SDS011;11727;52.134;5.052;2022-09-02T11:05:03;2.22;;;0.85;;
23115;SDS011;11727;52.134;5.052;2022-09-02T11:07:39;2.70;;;0.68;;
23115;SDS011;11727;52.134;5.052;2022-09-02T11:10:15;2.05;;;0.80;;
23115;SDS011;11727;52.134;5.052;2022-09-02T11:15:40;2.10;;;0.80;;
23115;SDS011;11727;52.134;5.052;2022-09-02T11:18:32;2.53;;;1.30;;
23115;SDS011;11727;52.134;5.052;2022-09-02T11:21:08;1.65;;;0.70;;
23115;SDS011;11727;52.134;5.052;2022-09-02T11:24:12;1.10;;;0.75;;
23115;SDS011;11727;52.134;5.052;2022-09-02T11:26:55;1.00;;;0.73;;
23115;SDS011;11727;52.134;5.052;2022-09-02T11:32:16;1.60;;;0.80;;
23115;SDS011;11727;52.134;5.052;2022-09-02T11:34:58;5.05;;;1.02;;
23115;SDS011;11727;52.134;5.052;2022-09-02T11:37:56;3.05;;;0.95;;
23115;SDS011;11727;52.134;5.052;2022-09-02T11:40:35;2.10;;;0.68;;
23115;SDS011;11727;52.134;5.052;2022-09-02T11:43:15;2.00;;;0.65;;
23115;SDS011;11727;52.134;5.052;2022-09-02T11:53:35;1.65;;;0.90;;
23115;SDS011;11727;52.134;5.052;2022-09-02T12:03:40;2.55;;;1.02;;
23115;SDS011;11727;52.134;5.052;2022-09-02T12:06:12;2.55;;;0.88;;
23115;SDS011;11727;52.134;5.052;2022-09-02T12:11:07;1.38;;;0.85;;
23115;SDS011;11727;52.134;5.052;2022-09-02T12:13:54;1.13;;;0.90;;
23115;SDS011;11727;52.134;5.052;2022-09-02T12:21:18;1.45;;;0.73;;
23115;SDS011;11727;52.134;5.052;2022-09-02T12:26:21;1.00;;;0.80;;
23115;SDS011;11727;52.134;5.052;2022-09-02T12:28:49;1.83;;;0.90;;
23115;SDS011;11727;52.134;5.052;2022-09-02T12:33:54;1.40;;;0.75;;
23115;SDS011;11727;52.134;5.052;2022-09-02T12:44:48;1.33;;;0.77;;
23115;SDS011;11727;52.134;5.052;2022-09-02T12:50:18;3.92;;;0.85;;
23115;SDS011;11727;52.134;5.052;2022-09-02T12:52:48;2.30;;;1.30;;
23115;SDS011;11727;52.134;5.052;2022-09-02T12:55:26;1.85;;;0.77;;
23115;SDS011;11727;52.134;5.052;2022-09-02T12:58:03;1.23;;;0.70;;
23115;SDS011;11727;52.134;5.052;2022-09-02T13:06:02;1.65;;;0.80;;
23115;SDS011;11727;52.134;5.052;2022-09-02T13:08:47;2.72;;;1.15;;
23115;SDS011;11727;52.134;5.052;2022-09-02T13:14:51;2.05;;;1.00;;
23115;SDS011;11727;52.134;5.052;2022-09-02T13:28:28;1.38;;;1.00;;
23115;SDS011;11727;52.134;5.052;2022-09-02T13:36:49;2.83;;;0.93;;
23115;SDS011;11727;52.134;5.052;2022-09-02T13:39:16;1.20;;;0.80;;
23115;SDS011;11727;52.134;5.052;2022-09-02T13:41:43;1.42;;;0.77;;
23115;SDS011;11727;52.134;5.052;2022-09-02T13:44:10;3.25;;;1.45;;
23115;SDS011;11727;52.134;5.052;2022-09-02T13:46:48;1.45;;;0.85;;
23115;SDS011;11727;52.134;5.052;2022-09-02T13:49:19;3.28;;;1.23;;
23115;SDS011;11727;52.134;5.052;2022-09-02T13:51:47;2.30;;;0.93;;
23115;SDS011;11727;52.134;5.052;2022-09-02T13:54:19;1.38;;;0.80;;
23115;SDS011;11727;52.134;5.052;2022-09-02T13:59:48;1.73;;;0.95;;
23115;SDS011;11727;52.134;5.052;2022-09-02T14:05:00;1.08;;;0.80;;
23115;SDS011;11727;52.134;5.052;2022-09-02T14:07:36;1.50;;;1.08;;
23115;SDS011;11727;52.134;5.052;2022-09-02T14:10:08;6.15;;;1.08;;
23115;SDS011;11727;52.134;5.052;2022-09-02T14:12:36;6.00;;;1.30;;
23115;SDS011;11727;52.134;5.052;2022-09-02T14:15:04;1.60;;;1.17;;
23115;SDS011;11727;52.134;5.052;2022-09-02T14:17:32;1.85;;;1.08;;
23115;SDS011;11727;52.134;5.052;2022-09-02T14:20:07;1.35;;;0.75;;
23115;SDS011;11727;52.134;5.052;2022-09-02T14:22:33;1.50;;;0.90;;
23115;SDS011;11727;52.134;5.052;2022-09-02T14:24:59;1.88;;;0.90;;
23115;SDS011;11727;52.134;5.052;2022-09-02T14:27:52;1.90;;;0.90;;
23115;SDS011;11727;52.134;5.052;2022-09-02T14:35:41;1.73;;;0.90;;
23115;SDS011;11727;52.134;5.052;2022-09-02T14:38:24;1.63;;;0.80;;
23115;SDS011;11727;52.134;5.052;2022-09-02T14:41:04;2.03;;;0.80;;
23115;SDS011;11727;52.134;5.052;2022-09-02T14:43:40;1.20;;;1.00;;
23115;SDS011;11727;52.134;5.052;2022-09-02T14:46:16;2.22;;;0.95;;
23115;SDS011;11727;52.134;5.052;2022-09-02T14:49:44;1.80;;;0.85;;
23115;SDS011;11727;52.134;5.052;2022-09-02T14:51:44;2.00;;;1.20;;
23115;SDS011;11727;52.134;5.052;2022-09-02T14:57:04;3.30;;;1.05;;
23115;SDS011;11727;52.134;5.052;2022-09-02T15:01:57;1.10;;;0.93;;
23115;SDS011;11727;52.134;5.052;2022-09-02T15:04:23;1.17;;;0.93;;
23115;SDS011;11727;52.134;5.052;2022-09-02T15:06:49;1.35;;;1.10;;
23115;SDS011;11727;52.134;5.052;2022-09-02T15:09:15;2.65;;;1.23;;
23115;SDS011;11727;52.134;5.052;2022-09-02T15:11:43;2.17;;;1.00;;
23115;SDS011;11727;52.134;5.052;2022-09-02T15:14:13;1.70;;;0.82;;
23115;SDS011;11727;52.134;5.052;2022-09-02T15:16:42;1.58;;;1.08;;
23115;SDS011;11727;52.134;5.052;2022-09-02T15:19:07;1.48;;;1.00;;
23115;SDS011;11727;52.134;5.052;2022-09-02T15:21:33;1.20;;;0.80;;
23115;SDS011;11727;52.134;5.052;2022-09-02T15:23:58;1.77;;;1.00;;
23115;SDS011;11727;52.134;5.052;2022-09-02T15:26:24;2.95;;;1.27;;
23115;SDS011;11727;52.134;5.052;2022-09-02T15:28:49;0.80;;;0.60;;
23115;SDS011;11727;52.134;5.052;2022-09-02T15:31:15;1.90;;;1.10;;
23115;SDS011;11727;52.134;5.052;2022-09-02T15:33:41;0.98;;;0.70;;
23115;SDS011;11727;52.134;5.052;2022-09-02T15:36:07;1.15;;;0.85;;
23115;SDS011;11727;52.134;5.052;2022-09-02T15:38:38;1.88;;;0.75;;
23115;SDS011;11727;52.134;5.052;2022-09-02T15:41:11;2.35;;;1.08;;
23115;SDS011;11727;52.134;5.052;2022-09-02T15:43:42;1.50;;;0.73;;
23115;SDS011;11727;52.134;5.052;2022-09-02T15:46:27;2.10;;;0.80;;
23115;SDS011;11727;52.134;5.052;2022-09-02T15:48:54;1.02;;;0.70;;
23115;SDS011;11727;52.134;5.052;2022-09-02T15:51:23;1.42;;;0.82;;
23115;SDS011;11727;52.134;5.052;2022-09-02T15:53:53;1.17;;;0.75;;
23115;SDS011;11727;52.134;5.052;2022-09-02T15:56:20;1.95;;;1.20;;
23115;SDS011;11727;52.134;5.052;2022-09-02T15:58:53;0.80;;;0.68;;
23115;SDS011;11727;52.134;5.052;2022-09-02T16:01:32;2.47;;;0.65;;
23115;SDS011;11727;52.134;5.052;2022-09-02T16:04:00;2.03;;;1.08;;
23115;SDS011;11727;52.134;5.052;2022-09-02T16:06:26;1.02;;;0.70;;
23115;SDS011;11727;52.134;5.052;2022-09-02T16:08:52;6.25;;;0.88;;
23115;SDS011;11727;52.134;5.052;2022-09-02T16:11:19;1.60;;;0.70;;
23115;SDS011;11727;52.134;5.052;2022-09-02T16:13:45;4.15;;;0.70;;
23115;SDS011;11727;52.134;5.052;2022-09-02T16:16:12;2.20;;;0.93;;
23115;SDS011;11727;52.134;5.052;2022-09-02T16:18:38;1.70;;;0.77;;
23115;SDS011;11727;52.134;5.052;2022-09-02T16:21:05;0.93;;;0.82;;
23115;SDS011;11727;52.134;5.052;2022-09-02T16:23:33;1.35;;;0.70;;
23115;SDS011;11727;52.134;5.052;2022-09-02T16:26:06;2.05;;;0.90;;
23115;SDS011;11727;52.134;5.052;2022-09-02T16:28:36;1.23;;;0.80;;
23115;SDS011;11727;52.134;5.052;2022-09-02T16:31:03;1.15;;;0.77;;
23115;SDS011;11727;52.134;5.052;2022-09-02T16:35:55;1.80;;;0.90;;
23115;SDS011;11727;52.134;5.052;2022-09-02T16:38:21;1.30;;;0.70;;
23115;SDS011;11727;52.134;5.052;2022-09-02T16:40:54;5.50;;;0.98;;
23115;SDS011;11727;52.134;5.052;2022-09-02T16:43:21;2.13;;;1.10;;
23115;SDS011;11727;52.134;5.052;2022-09-02T16:45:48;1.52;;;0.82;;
23115;SDS011;11727;52.134;5.052;2022-09-02T16:48:16;2.58;;;0.80;;
23115;SDS011;11727;52.134;5.052;2022-09-02T16:50:43;6.78;;;1.08;;
23115;SDS011;11727;52.134;5.052;2022-09-02T16:53:09;2.10;;;0.93;;
23115;SDS011;11727;52.134;5.052;2022-09-02T16:55:42;1.42;;;0.77;;
23115;SDS011;11727;52.134;5.052;2022-09-02T16:58:09;1.50;;;0.80;;
23115;SDS011;11727;52.134;5.052;2022-09-02T17:00:36;2.20;;;1.10;;
23115;SDS011;11727;52.134;5.052;2022-09-02T17:03:05;2.05;;;1.23;;
23115;SDS011;11727;52.134;5.052;2022-09-02T17:05:31;2.60;;;1.33;;
23115;SDS011;11727;52.134;5.052;2022-09-02T17:07:57;3.33;;;0.93;;
23115;SDS011;11727;52.134;5.052;2022-09-02T17:10:25;1.90;;;0.90;;
23115;SDS011;11727;52.134;5.052;2022-09-02T17:12:52;1.60;;;0.80;;
23115;SDS011;11727;52.134;5.052;2022-09-02T17:15:18;1.13;;;0.70;;
23115;SDS011;11727;52.134;5.052;2022-09-02T17:17:44;3.22;;;0.85;;
23115;SDS011;11727;52.134;5.052;2022-09-02T17:20:10;2.10;;;1.02;;
23115;SDS011;11727;52.134;5.052;2022-09-02T17:22:37;1.10;;;1.00;;
23115;SDS011;11727;52.134;5.052;2022-09-02T17:25:04;2.35;;;0.77;;
23115;SDS011;11727;52.134;5.052;2022-09-02T17:27:30;1.55;;;0.90;;
23115;SDS011;11727;52.134;5.052;2022-09-02T17:29:57;15.48;;;1.27;;
23115;SDS011;11727;52.134;5.052;2022-09-02T17:32:24;1.77;;;0.75;;
23115;SDS011;11727;52.134;5.052;2022-09-02T17:34:50;2.27;;;0.80;;
23115;SDS011;11727;52.134;5.052;2022-09-02T17:37:16;4.05;;;0.85;;
23115;SDS011;11727;52.134;5.052;2022-09-02T17:39:42;3.40;;;1.20;;